Salton City, CA (92275)

11:17 PM PST on February 05, 2016 (GMT -0800)
APRSWXNET | | Change Station
CLOSE
Current Station
Personal Weather Station
Location: Coachella, CA
Elevation: 110 ft
Nearby Weather Stations

Elev 110 ft 33.67 °N, 116.15 °W | Updated 24 minutes ago

Clear
Clear
54 °F
Feels Like 54 °F
N
1
Wind Variable Wind from NNW
Gusts 2.0 mph

Today
High -- | Low -- °F
--% Chance of Precip.
Yesterday
High -- | Low -- °F
Precip. -- in
Pressure 30.35 in
Visibility 10.0 miles
Clouds Clear
Dew Point 26 °F
Humidity 34%
Rainfall in
Snow Depth Not available.
6:38 AM 5:19 PM
Waning Crescent, 7% visible
METAR KTRM 060652Z AUTO 00000KT 10SM CLR 07/M03 A3035 RMK AO2 SLP277 T00671028
Pressure 30.35 in
Visibility 10.0 miles
Clouds Clear
Dew Point 26 °F
Humidity 34%
Rainfall in
Snow Depth Not available.
6:38 AM 5:19 PM
Waning Crescent, 7% visible
METAR KTRM 060652Z AUTO 00000KT 10SM CLR 07/M03 A3035 RMK AO2 SLP277 T00671028

10-Day Weather Forecast

Almanac

Astronomy

Feb. 05, 2016 Rise Set
Actual Time
Civil Twilight
Nautical Twilight
Astronomical Twilight
Moon
Length of Visible Light
Length of Day
Tomorrow will be .
, % of the Moon is Illuminated

Today's Extremes

State Highs State Lows

Community

WunderPhotos

Upload Photos

1,890,932 photos uploaded!

WunderBlog® & News

Nearby

Air Quality

  Air Quality AQ Index Pollutant
Not available.

Snow Depth

Station Depth Elevation

Earthquake Activity

City Distance Mag. Time & Date
Minimum magnitude displayed is 2.5.

Coastal Water Temperatures

Place Temperature

Stations

Nearby Weather Stations

Station Location Temp. Windchill Dew Point Humidity Wind Precip. Elev Updated Type
                   

Watches & Warnings

There are currently no watches in effect.